sensor_id;sensor_type;location;lat;lon;timestamp;temperature;humidity
11615;DHT22;5863;52.832;4.758;2024-03-06T00:00:53;8.10;99.90
11615;DHT22;5863;52.832;4.758;2024-03-06T00:03:21;8.00;99.90
11615;DHT22;5863;52.832;4.758;2024-03-06T00:05:48;8.00;99.90
11615;DHT22;5863;52.832;4.758;2024-03-06T00:08:15;8.00;99.90
11615;DHT22;5863;52.832;4.758;2024-03-06T00:10:42;8.00;99.90
11615;DHT22;5863;52.832;4.758;2024-03-06T00:13:10;8.00;99.90
11615;DHT22;5863;52.832;4.758;2024-03-06T00:15:37;7.90;99.90
11615;DHT22;5863;52.832;4.758;2024-03-06T00:18:05;7.90;99.90
11615;DHT22;5863;52.832;4.758;2024-03-06T00:20:33;7.90;99.90
11615;DHT22;5863;52.832;4.758;2024-03-06T00:23:00;7.90;99.90
11615;DHT22;5863;52.832;4.758;2024-03-06T00:25:27;7.90;99.90
11615;DHT22;5863;52.832;4.758;2024-03-06T00:27:53;8.00;99.90
11615;DHT22;5863;52.832;4.758;2024-03-06T00:30:20;7.90;99.90
11615;DHT22;5863;52.832;4.758;2024-03-06T00:32:47;8.00;99.90
11615;DHT22;5863;52.832;4.758;2024-03-06T00:35:14;7.90;99.90
11615;DHT22;5863;52.832;4.758;2024-03-06T00:37:42;7.90;99.90
11615;DHT22;5863;52.832;4.758;2024-03-06T00:40:11;8.00;99.90
11615;DHT22;5863;52.832;4.758;2024-03-06T00:42:38;7.90;99.90
11615;DHT22;5863;52.832;4.758;2024-03-06T00:45:07;7.90;99.90
11615;DHT22;5863;52.832;4.758;2024-03-06T00:47:34;8.00;99.90
11615;DHT22;5863;52.832;4.758;2024-03-06T00:50:01;7.90;99.90
11615;DHT22;5863;52.832;4.758;2024-03-06T00:52:28;7.90;99.90
11615;DHT22;5863;52.832;4.758;2024-03-06T00:54:56;7.90;99.90
11615;DHT22;5863;52.832;4.758;2024-03-06T00:57:23;8.00;99.90
11615;DHT22;5863;52.832;4.758;2024-03-06T00:59:49;8.00;99.90
11615;DHT22;5863;52.832;4.758;2024-03-06T01:02:15;8.00;99.90
11615;DHT22;5863;52.832;4.758;2024-03-06T01:04:42;8.00;99.90
11615;DHT22;5863;52.832;4.758;2024-03-06T01:07:09;7.90;99.90
11615;DHT22;5863;52.832;4.758;2024-03-06T01:09:36;7.90;99.90
11615;DHT22;5863;52.832;4.758;2024-03-06T01:12:04;8.00;99.90
11615;DHT22;5863;52.832;4.758;2024-03-06T01:14:32;7.90;99.90
11615;DHT22;5863;52.832;4.758;2024-03-06T01:16:59;7.90;99.90
11615;DHT22;5863;52.832;4.758;2024-03-06T01:19:26;7.90;99.90
11615;DHT22;5863;52.832;4.758;2024-03-06T01:21:53;7.90;99.90
11615;DHT22;5863;52.832;4.758;2024-03-06T01:24:20;7.90;99.90
11615;DHT22;5863;52.832;4.758;2024-03-06T01:26:47;7.90;99.90
11615;DHT22;5863;52.832;4.758;2024-03-06T01:29:15;7.90;99.90
11615;DHT22;5863;52.832;4.758;2024-03-06T01:31:42;7.90;99.90
11615;DHT22;5863;52.832;4.758;2024-03-06T01:34:12;7.90;99.90
11615;DHT22;5863;52.832;4.758;2024-03-06T01:36:38;7.90;99.90
11615;DHT22;5863;52.832;4.758;2024-03-06T01:39:05;7.90;99.90
11615;DHT22;5863;52.832;4.758;2024-03-06T01:41:32;7.90;99.90
11615;DHT22;5863;52.832;4.758;2024-03-06T01:43:59;7.90;99.90
11615;DHT22;5863;52.832;4.758;2024-03-06T01:46:27;7.90;99.90
11615;DHT22;5863;52.832;4.758;2024-03-06T01:48:54;7.90;99.90
11615;DHT22;5863;52.832;4.758;2024-03-06T01:51:21;7.90;99.90
11615;DHT22;5863;52.832;4.758;2024-03-06T01:53:48;7.90;99.90
11615;DHT22;5863;52.832;4.758;2024-03-06T01:56:15;7.80;99.90
11615;DHT22;5863;52.832;4.758;2024-03-06T01:58:45;7.80;99.90
11615;DHT22;5863;52.832;4.758;2024-03-06T02:01:12;7.90;99.90
11615;DHT22;5863;52.832;4.758;2024-03-06T02:03:41;7.80;99.90
11615;DHT22;5863;52.832;4.758;2024-03-06T02:06:10;7.80;99.90
11615;DHT22;5863;52.832;4.758;2024-03-06T02:08:38;7.80;99.90
11615;DHT22;5863;52.832;4.758;2024-03-06T02:11:05;7.80;99.90
11615;DHT22;5863;52.832;4.758;2024-03-06T02:13:32;7.70;99.90
11615;DHT22;5863;52.832;4.758;2024-03-06T02:15:59;7.80;99.90
11615;DHT22;5863;52.832;4.758;2024-03-06T02:18:26;7.70;99.90
11615;DHT22;5863;52.832;4.758;2024-03-06T02:20:54;7.70;99.90
11615;DHT22;5863;52.832;4.758;2024-03-06T02:23:21;7.70;99.90
11615;DHT22;5863;52.832;4.758;2024-03-06T02:25:49;7.70;99.90
11615;DHT22;5863;52.832;4.758;2024-03-06T02:28:16;7.70;99.90
11615;DHT22;5863;52.832;4.758;2024-03-06T02:30:43;7.70;99.90
11615;DHT22;5863;52.832;4.758;2024-03-06T02:33:10;7.70;99.90
11615;DHT22;5863;52.832;4.758;2024-03-06T02:35:37;7.70;99.90
11615;DHT22;5863;52.832;4.758;2024-03-06T02:38:06;7.70;99.90
11615;DHT22;5863;52.832;4.758;2024-03-06T02:40:33;7.70;99.90
11615;DHT22;5863;52.832;4.758;2024-03-06T02:43:00;7.70;99.90
11615;DHT22;5863;52.832;4.758;2024-03-06T02:45:27;7.70;99.90
11615;DHT22;5863;52.832;4.758;2024-03-06T02:47:54;7.70;99.90
11615;DHT22;5863;52.832;4.758;2024-03-06T02:50:21;7.70;99.90
11615;DHT22;5863;52.832;4.758;2024-03-06T02:52:48;7.60;99.90
11615;DHT22;5863;52.832;4.758;2024-03-06T02:55:18;7.60;99.90
11615;DHT22;5863;52.832;4.758;2024-03-06T02:57:45;7.60;99.90
11615;DHT22;5863;52.832;4.758;2024-03-06T03:00:13;7.60;99.90
11615;DHT22;5863;52.832;4.758;2024-03-06T03:02:41;7.60;99.90
11615;DHT22;5863;52.832;4.758;2024-03-06T03:05:09;7.60;99.90
11615;DHT22;5863;52.832;4.758;2024-03-06T03:07:36;7.60;99.90
11615;DHT22;5863;52.832;4.758;2024-03-06T03:10:03;7.60;99.90
11615;DHT22;5863;52.832;4.758;2024-03-06T03:12:33;7.60;99.90
11615;DHT22;5863;52.832;4.758;2024-03-06T03:15:00;7.60;99.90
11615;DHT22;5863;52.832;4.758;2024-03-06T03:17:27;7.60;99.90
11615;DHT22;5863;52.832;4.758;2024-03-06T03:19:54;7.60;99.90
11615;DHT22;5863;52.832;4.758;2024-03-06T03:22:21;7.60;99.90
11615;DHT22;5863;52.832;4.758;2024-03-06T03:24:47;7.60;99.90
11615;DHT22;5863;52.832;4.758;2024-03-06T03:27:14;7.60;99.90
11615;DHT22;5863;52.832;4.758;2024-03-06T03:29:43;7.60;99.90
11615;DHT22;5863;52.832;4.758;2024-03-06T03:32:10;7.60;99.90
11615;DHT22;5863;52.832;4.758;2024-03-06T03:34:37;7.50;99.90
11615;DHT22;5863;52.832;4.758;2024-03-06T03:37:04;7.60;99.90
11615;DHT22;5863;52.832;4.758;2024-03-06T03:39:31;7.60;99.90
11615;DHT22;5863;52.832;4.758;2024-03-06T03:41:58;7.60;99.90
11615;DHT22;5863;52.832;4.758;2024-03-06T03:44:25;7.50;99.90
11615;DHT22;5863;52.832;4.758;2024-03-06T03:46:53;7.60;99.90
11615;DHT22;5863;52.832;4.758;2024-03-06T03:49:20;7.60;99.90
11615;DHT22;5863;52.832;4.758;2024-03-06T03:51:46;7.50;99.90
11615;DHT22;5863;52.832;4.758;2024-03-06T03:54:13;7.50;99.90
11615;DHT22;5863;52.832;4.758;2024-03-06T03:56:40;7.40;99.90
11615;DHT22;5863;52.832;4.758;2024-03-06T03:59:07;7.50;99.90
11615;DHT22;5863;52.832;4.758;2024-03-06T04:01:34;7.60;99.90
11615;DHT22;5863;52.832;4.758;2024-03-06T04:04:02;7.60;99.90
11615;DHT22;5863;52.832;4.758;2024-03-06T04:06:29;7.60;99.90
11615;DHT22;5863;52.832;4.758;2024-03-06T04:08:56;7.60;99.90
11615;DHT22;5863;52.832;4.758;2024-03-06T04:11:23;7.60;99.90
11615;DHT22;5863;52.832;4.758;2024-03-06T04:13:50;7.60;99.90
11615;DHT22;5863;52.832;4.758;2024-03-06T04:16:17;7.60;99.90
11615;DHT22;5863;52.832;4.758;2024-03-06T04:18:44;7.50;99.90
11615;DHT22;5863;52.832;4.758;2024-03-06T04:21:13;7.50;99.90
11615;DHT22;5863;52.832;4.758;2024-03-06T04:23:40;7.50;99.90
11615;DHT22;5863;52.832;4.758;2024-03-06T04:26:07;7.50;99.90
11615;DHT22;5863;52.832;4.758;2024-03-06T04:28:34;7.50;99.90
11615;DHT22;5863;52.832;4.758;2024-03-06T04:31:01;7.50;99.90
11615;DHT22;5863;52.832;4.758;2024-03-06T04:33:28;7.50;99.90
11615;DHT22;5863;52.832;4.758;2024-03-06T04:35:55;7.50;99.90
11615;DHT22;5863;52.832;4.758;2024-03-06T04:38:23;7.50;99.90
11615;DHT22;5863;52.832;4.758;2024-03-06T04:40:51;7.50;99.90
11615;DHT22;5863;52.832;4.758;2024-03-06T04:43:18;7.50;99.90
11615;DHT22;5863;52.832;4.758;2024-03-06T04:45:45;7.50;99.90
11615;DHT22;5863;52.832;4.758;2024-03-06T04:48:12;7.50;99.90
11615;DHT22;5863;52.832;4.758;2024-03-06T04:50:39;7.50;99.90
11615;DHT22;5863;52.832;4.758;2024-03-06T04:53:06;7.50;99.90
11615;DHT22;5863;52.832;4.758;2024-03-06T04:55:35;7.50;99.90
11615;DHT22;5863;52.832;4.758;2024-03-06T04:58:02;7.50;99.90
11615;DHT22;5863;52.832;4.758;2024-03-06T05:00:30;7.50;99.90
11615;DHT22;5863;52.832;4.758;2024-03-06T05:02:56;7.60;99.90
11615;DHT22;5863;52.832;4.758;2024-03-06T05:05:24;7.60;99.90
11615;DHT22;5863;52.832;4.758;2024-03-06T05:07:51;7.60;99.90
11615;DHT22;5863;52.832;4.758;2024-03-06T05:10:18;7.50;99.90
11615;DHT22;5863;52.832;4.758;2024-03-06T05:12:46;7.50;99.90
11615;DHT22;5863;52.832;4.758;2024-03-06T05:15:15;7.50;99.90
11615;DHT22;5863;52.832;4.758;2024-03-06T05:17:42;7.50;99.90
11615;DHT22;5863;52.832;4.758;2024-03-06T05:20:09;7.50;99.90
11615;DHT22;5863;52.832;4.758;2024-03-06T05:22:37;7.50;99.90
11615;DHT22;5863;52.832;4.758;2024-03-06T05:25:04;7.50;99.90
11615;DHT22;5863;52.832;4.758;2024-03-06T05:27:32;7.50;99.90
11615;DHT22;5863;52.832;4.758;2024-03-06T05:30:00;7.50;99.90
11615;DHT22;5863;52.832;4.758;2024-03-06T05:32:29;7.50;99.90
11615;DHT22;5863;52.832;4.758;2024-03-06T05:34:56;7.60;99.90
11615;DHT22;5863;52.832;4.758;2024-03-06T05:37:24;7.60;99.90
11615;DHT22;5863;52.832;4.758;2024-03-06T05:39:51;7.60;99.90
11615;DHT22;5863;52.832;4.758;2024-03-06T05:42:19;7.70;99.90
11615;DHT22;5863;52.832;4.758;2024-03-06T05:44:46;7.60;99.90
11615;DHT22;5863;52.832;4.758;2024-03-06T05:47:15;7.70;99.90
11615;DHT22;5863;52.832;4.758;2024-03-06T05:49:42;7.60;99.90
11615;DHT22;5863;52.832;4.758;2024-03-06T05:52:09;7.70;99.90
11615;DHT22;5863;52.832;4.758;2024-03-06T05:54:36;7.70;99.90
11615;DHT22;5863;52.832;4.758;2024-03-06T05:57:03;7.70;99.90
11615;DHT22;5863;52.832;4.758;2024-03-06T05:59:30;7.70;99.90
11615;DHT22;5863;52.832;4.758;2024-03-06T06:01:57;7.70;99.90
11615;DHT22;5863;52.832;4.758;2024-03-06T06:04:25;7.70;99.90
11615;DHT22;5863;52.832;4.758;2024-03-06T06:06:52;7.70;99.90
11615;DHT22;5863;52.832;4.758;2024-03-06T06:09:19;7.70;99.90
11615;DHT22;5863;52.832;4.758;2024-03-06T06:11:46;7.70;99.90
11615;DHT22;5863;52.832;4.758;2024-03-06T06:14:13;7.70;99.90
11615;DHT22;5863;52.832;4.758;2024-03-06T06:16:41;7.70;99.90
11615;DHT22;5863;52.832;4.758;2024-03-06T06:19:08;7.80;99.90
11615;DHT22;5863;52.832;4.758;2024-03-06T06:21:36;7.70;99.90
11615;DHT22;5863;52.832;4.758;2024-03-06T06:24:04;7.70;99.90
11615;DHT22;5863;52.832;4.758;2024-03-06T06:26:31;7.70;99.90
11615;DHT22;5863;52.832;4.758;2024-03-06T06:28:58;7.70;99.90
11615;DHT22;5863;52.832;4.758;2024-03-06T06:31:25;7.70;99.90
11615;DHT22;5863;52.832;4.758;2024-03-06T06:33:52;7.70;99.90
11615;DHT22;5863;52.832;4.758;2024-03-06T06:36:19;7.70;99.90
11615;DHT22;5863;52.832;4.758;2024-03-06T06:38:48;7.70;99.90
11615;DHT22;5863;52.832;4.758;2024-03-06T06:41:15;7.80;99.90
11615;DHT22;5863;52.832;4.758;2024-03-06T06:43:41;7.80;99.90
11615;DHT22;5863;52.832;4.758;2024-03-06T06:46:08;7.70;99.90
11615;DHT22;5863;52.832;4.758;2024-03-06T06:48:36;7.70;99.90
11615;DHT22;5863;52.832;4.758;2024-03-06T06:51:03;7.80;99.90
11615;DHT22;5863;52.832;4.758;2024-03-06T06:53:30;7.80;99.90
11615;DHT22;5863;52.832;4.758;2024-03-06T06:55:58;7.80;99.90
11615;DHT22;5863;52.832;4.758;2024-03-06T06:58:25;7.80;99.90
11615;DHT22;5863;52.832;4.758;2024-03-06T07:00:53;7.90;99.90
11615;DHT22;5863;52.832;4.758;2024-03-06T07:03:20;7.90;99.90
11615;DHT22;5863;52.832;4.758;2024-03-06T07:05:48;7.90;99.90
11615;DHT22;5863;52.832;4.758;2024-03-06T07:08:15;7.90;99.90
11615;DHT22;5863;52.832;4.758;2024-03-06T07:10:42;7.90;99.90
11615;DHT22;5863;52.832;4.758;2024-03-06T07:13:10;7.90;99.90
11615;DHT22;5863;52.832;4.758;2024-03-06T07:15:37;7.90;99.90
11615;DHT22;5863;52.832;4.758;2024-03-06T07:18:04;8.00;99.90
11615;DHT22;5863;52.832;4.758;2024-03-06T07:20:31;8.00;99.90
11615;DHT22;5863;52.832;4.758;2024-03-06T07:22:58;8.00;99.90
11615;DHT22;5863;52.832;4.758;2024-03-06T07:25:25;8.00;99.90
11615;DHT22;5863;52.832;4.758;2024-03-06T07:27:52;8.00;99.90
11615;DHT22;5863;52.832;4.758;2024-03-06T07:30:20;8.10;99.90
11615;DHT22;5863;52.832;4.758;2024-03-06T07:32:48;8.10;99.90
11615;DHT22;5863;52.832;4.758;2024-03-06T07:35:14;8.20;99.90
11615;DHT22;5863;52.832;4.758;2024-03-06T07:37:44;8.20;99.90
11615;DHT22;5863;52.832;4.758;2024-03-06T07:40:11;8.30;99.90
11615;DHT22;5863;52.832;4.758;2024-03-06T07:42:38;8.40;99.90
11615;DHT22;5863;52.832;4.758;2024-03-06T07:45:06;8.50;99.90
11615;DHT22;5863;52.832;4.758;2024-03-06T07:47:35;8.40;99.90
11615;DHT22;5863;52.832;4.758;2024-03-06T07:50:04;8.50;99.90
11615;DHT22;5863;52.832;4.758;2024-03-06T07:52:33;8.50;99.90
11615;DHT22;5863;52.832;4.758;2024-03-06T07:55:01;8.50;99.90
11615;DHT22;5863;52.832;4.758;2024-03-06T07:57:28;8.60;99.90
11615;DHT22;5863;52.832;4.758;2024-03-06T07:59:55;8.60;99.90
11615;DHT22;5863;52.832;4.758;2024-03-06T08:02:22;8.70;99.90
11615;DHT22;5863;52.832;4.758;2024-03-06T08:04:50;8.70;99.90
11615;DHT22;5863;52.832;4.758;2024-03-06T08:07:17;8.80;99.90
11615;DHT22;5863;52.832;4.758;2024-03-06T08:09:44;8.70;99.90
11615;DHT22;5863;52.832;4.758;2024-03-06T08:12:11;8.80;99.90
11615;DHT22;5863;52.832;4.758;2024-03-06T08:14:38;8.90;99.90
11615;DHT22;5863;52.832;4.758;2024-03-06T08:17:04;8.90;99.90
11615;DHT22;5863;52.832;4.758;2024-03-06T08:19:31;9.00;99.90
11615;DHT22;5863;52.832;4.758;2024-03-06T08:22:00;9.10;99.90
11615;DHT22;5863;52.832;4.758;2024-03-06T08:24:26;9.10;99.90
11615;DHT22;5863;52.832;4.758;2024-03-06T08:26:53;9.10;99.90
11615;DHT22;5863;52.832;4.758;2024-03-06T08:29:21;9.20;99.90
11615;DHT22;5863;52.832;4.758;2024-03-06T08:31:47;9.10;99.90
11615;DHT22;5863;52.832;4.758;2024-03-06T08:34:14;9.10;99.90
11615;DHT22;5863;52.832;4.758;2024-03-06T08:36:42;9.10;99.90
11615;DHT22;5863;52.832;4.758;2024-03-06T08:39:10;9.10;99.90
11615;DHT22;5863;52.832;4.758;2024-03-06T08:41:40;9.20;99.90
11615;DHT22;5863;52.832;4.758;2024-03-06T08:44:07;9.30;99.90
11615;DHT22;5863;52.832;4.758;2024-03-06T08:46:34;9.30;99.90
11615;DHT22;5863;52.832;4.758;2024-03-06T08:49:04;9.20;99.90
11615;DHT22;5863;52.832;4.758;2024-03-06T08:51:32;9.20;99.90
11615;DHT22;5863;52.832;4.758;2024-03-06T08:54:02;9.10;99.90
11615;DHT22;5863;52.832;4.758;2024-03-06T08:56:30;9.00;99.90
11615;DHT22;5863;52.832;4.758;2024-03-06T08:58:59;9.00;99.90
11615;DHT22;5863;52.832;4.758;2024-03-06T09:01:28;9.00;99.90
11615;DHT22;5863;52.832;4.758;2024-03-06T09:03:54;9.10;99.90
11615;DHT22;5863;52.832;4.758;2024-03-06T09:06:22;9.10;99.90
11615;DHT22;5863;52.832;4.758;2024-03-06T09:08:49;9.10;99.90
11615;DHT22;5863;52.832;4.758;2024-03-06T09:11:16;9.00;99.90
11615;DHT22;5863;52.832;4.758;2024-03-06T09:13:44;9.00;99.90
11615;DHT22;5863;52.832;4.758;2024-03-06T09:16:11;9.00;99.90
11615;DHT22;5863;52.832;4.758;2024-03-06T09:18:38;9.00;99.90
11615;DHT22;5863;52.832;4.758;2024-03-06T09:21:05;9.20;99.90
11615;DHT22;5863;52.832;4.758;2024-03-06T09:23:32;9.20;99.90
11615;DHT22;5863;52.832;4.758;2024-03-06T09:25:58;9.30;99.90
11615;DHT22;5863;52.832;4.758;2024-03-06T09:28:25;9.40;99.90
11615;DHT22;5863;52.832;4.758;2024-03-06T09:30:53;9.40;99.90
11615;DHT22;5863;52.832;4.758;2024-03-06T09:33:20;9.40;99.90
11615;DHT22;5863;52.832;4.758;2024-03-06T09:35:48;9.40;99.90
11615;DHT22;5863;52.832;4.758;2024-03-06T09:38:15;9.50;99.90
11615;DHT22;5863;52.832;4.758;2024-03-06T09:40:42;9.50;99.90
11615;DHT22;5863;52.832;4.758;2024-03-06T09:43:09;9.50;99.90
11615;DHT22;5863;52.832;4.758;2024-03-06T09:45:36;9.60;99.90
11615;DHT22;5863;52.832;4.758;2024-03-06T09:48:06;9.60;99.90
11615;DHT22;5863;52.832;4.758;2024-03-06T09:50:35;9.70;99.90
11615;DHT22;5863;52.832;4.758;2024-03-06T09:53:08;9.70;99.90
11615;DHT22;5863;52.832;4.758;2024-03-06T09:55:36;9.80;99.90
11615;DHT22;5863;52.832;4.758;2024-03-06T09:58:04;9.90;99.90
11615;DHT22;5863;52.832;4.758;2024-03-06T10:00:30;9.90;99.90
11615;DHT22;5863;52.832;4.758;2024-03-06T10:03:00;10.10;99.90
11615;DHT22;5863;52.832;4.758;2024-03-06T10:05:28;10.10;99.90
11615;DHT22;5863;52.832;4.758;2024-03-06T10:07:57;10.30;99.90
11615;DHT22;5863;52.832;4.758;2024-03-06T10:10:24;10.40;99.90
11615;DHT22;5863;52.832;4.758;2024-03-06T10:12:52;10.60;99.90
11615;DHT22;5863;52.832;4.758;2024-03-06T10:15:20;10.70;99.90
11615;DHT22;5863;52.832;4.758;2024-03-06T10:17:47;10.90;99.90
11615;DHT22;5863;52.832;4.758;2024-03-06T10:20:21;11.00;99.90
11615;DHT22;5863;52.832;4.758;2024-03-06T10:22:51;11.10;99.90
11615;DHT22;5863;52.832;4.758;2024-03-06T10:25:19;11.20;99.90
11615;DHT22;5863;52.832;4.758;2024-03-06T10:27:47;11.30;99.90
11615;DHT22;5863;52.832;4.758;2024-03-06T10:30:27;11.30;99.90
11615;DHT22;5863;52.832;4.758;2024-03-06T10:32:54;11.40;99.90
11615;DHT22;5863;52.832;4.758;2024-03-06T10:35:21;11.40;99.90
11615;DHT22;5863;52.832;4.758;2024-03-06T10:37:50;11.50;99.90
11615;DHT22;5863;52.832;4.758;2024-03-06T10:40:17;11.60;99.90
11615;DHT22;5863;52.832;4.758;2024-03-06T10:42:45;11.70;99.90
11615;DHT22;5863;52.832;4.758;2024-03-06T10:45:14;11.80;99.90
11615;DHT22;5863;52.832;4.758;2024-03-06T10:47:45;11.80;99.90
11615;DHT22;5863;52.832;4.758;2024-03-06T10:50:15;11.80;99.90
11615;DHT22;5863;52.832;4.758;2024-03-06T10:52:42;11.80;99.90
11615;DHT22;5863;52.832;4.758;2024-03-06T10:55:11;11.80;99.90
11615;DHT22;5863;52.832;4.758;2024-03-06T10:57:40;11.80;99.90
11615;DHT22;5863;52.832;4.758;2024-03-06T11:00:09;11.80;99.90
11615;DHT22;5863;52.832;4.758;2024-03-06T11:02:37;11.80;99.90
11615;DHT22;5863;52.832;4.758;2024-03-06T11:05:06;11.80;99.90
11615;DHT22;5863;52.832;4.758;2024-03-06T11:07:34;11.90;99.90
11615;DHT22;5863;52.832;4.758;2024-03-06T11:10:01;12.00;99.90
11615;DHT22;5863;52.832;4.758;2024-03-06T11:12:37;12.00;99.90
11615;DHT22;5863;52.832;4.758;2024-03-06T11:15:14;12.20;99.90
11615;DHT22;5863;52.832;4.758;2024-03-06T11:17:42;12.30;99.90
11615;DHT22;5863;52.832;4.758;2024-03-06T11:20:13;12.30;99.90
11615;DHT22;5863;52.832;4.758;2024-03-06T11:23:11;12.40;99.90
11615;DHT22;5863;52.832;4.758;2024-03-06T11:25:57;12.60;99.90
11615;DHT22;5863;52.832;4.758;2024-03-06T11:28:28;12.80;99.90
11615;DHT22;5863;52.832;4.758;2024-03-06T11:30:57;12.80;99.90
11615;DHT22;5863;52.832;4.758;2024-03-06T11:33:34;12.90;99.90
11615;DHT22;5863;52.832;4.758;2024-03-06T11:36:19;13.00;99.90
11615;DHT22;5863;52.832;4.758;2024-03-06T11:38:52;13.10;99.90
11615;DHT22;5863;52.832;4.758;2024-03-06T11:41:21;13.10;99.90
11615;DHT22;5863;52.832;4.758;2024-03-06T11:43:50;13.10;99.90
11615;DHT22;5863;52.832;4.758;2024-03-06T11:46:19;13.20;99.90
11615;DHT22;5863;52.832;4.758;2024-03-06T11:48:52;13.20;99.90
11615;DHT22;5863;52.832;4.758;2024-03-06T11:51:20;13.10;99.90
11615;DHT22;5863;52.832;4.758;2024-03-06T11:53:49;13.10;99.90
11615;DHT22;5863;52.832;4.758;2024-03-06T11:56:17;13.00;99.90
11615;DHT22;5863;52.832;4.758;2024-03-06T11:58:45;13.00;99.90
11615;DHT22;5863;52.832;4.758;2024-03-06T12:01:14;12.90;99.90
11615;DHT22;5863;52.832;4.758;2024-03-06T12:03:42;13.00;99.90
11615;DHT22;5863;52.832;4.758;2024-03-06T12:06:09;13.10;99.90
11615;DHT22;5863;52.832;4.758;2024-03-06T12:08:36;13.00;99.90
11615;DHT22;5863;52.832;4.758;2024-03-06T12:11:04;13.10;99.90
11615;DHT22;5863;52.832;4.758;2024-03-06T12:13:32;13.30;99.90
11615;DHT22;5863;52.832;4.758;2024-03-06T12:16:04;13.60;99.90
11615;DHT22;5863;52.832;4.758;2024-03-06T12:18:33;13.70;99.90
11615;DHT22;5863;52.832;4.758;2024-03-06T12:21:01;13.80;99.90
11615;DHT22;5863;52.832;4.758;2024-03-06T12:23:29;13.80;99.90
11615;DHT22;5863;52.832;4.758;2024-03-06T12:26:05;13.70;99.90
11615;DHT22;5863;52.832;4.758;2024-03-06T12:28:34;13.70;99.90
11615;DHT22;5863;52.832;4.758;2024-03-06T12:31:02;13.70;99.90
11615;DHT22;5863;52.832;4.758;2024-03-06T12:33:29;13.60;99.90
11615;DHT22;5863;52.832;4.758;2024-03-06T12:36:05;13.40;99.90
11615;DHT22;5863;52.832;4.758;2024-03-06T12:38:35;13.30;99.90
11615;DHT22;5863;52.832;4.758;2024-03-06T12:41:03;13.30;99.90
11615;DHT22;5863;52.832;4.758;2024-03-06T12:43:31;13.30;99.90
11615;DHT22;5863;52.832;4.758;2024-03-06T12:46:00;13.40;99.90
11615;DHT22;5863;52.832;4.758;2024-03-06T12:48:28;13.50;99.90
11615;DHT22;5863;52.832;4.758;2024-03-06T12:50:55;13.70;99.90
11615;DHT22;5863;52.832;4.758;2024-03-06T12:53:31;13.90;99.90
11615;DHT22;5863;52.832;4.758;2024-03-06T12:55:58;14.00;99.90
11615;DHT22;5863;52.832;4.758;2024-03-06T12:58:25;14.10;99.90
11615;DHT22;5863;52.832;4.758;2024-03-06T13:00:52;14.30;99.90
11615;DHT22;5863;52.832;4.758;2024-03-06T13:03:20;14.20;99.90
11615;DHT22;5863;52.832;4.758;2024-03-06T13:05:47;14.10;99.90
11615;DHT22;5863;52.832;4.758;2024-03-06T13:08:14;13.80;99.90
11615;DHT22;5863;52.832;4.758;2024-03-06T13:10:42;13.60;99.90
11615;DHT22;5863;52.832;4.758;2024-03-06T13:13:10;13.40;99.90
11615;DHT22;5863;52.832;4.758;2024-03-06T13:15:37;13.30;99.90
11615;DHT22;5863;52.832;4.758;2024-03-06T13:18:04;13.10;99.90
11615;DHT22;5863;52.832;4.758;2024-03-06T13:20:32;13.00;99.90
11615;DHT22;5863;52.832;4.758;2024-03-06T13:22:59;12.80;99.90
11615;DHT22;5863;52.832;4.758;2024-03-06T13:25:26;12.70;99.90
11615;DHT22;5863;52.832;4.758;2024-03-06T13:27:55;12.70;99.90
11615;DHT22;5863;52.832;4.758;2024-03-06T13:30:22;12.80;99.90
11615;DHT22;5863;52.832;4.758;2024-03-06T13:32:50;12.80;99.90
11615;DHT22;5863;52.832;4.758;2024-03-06T13:35:17;12.90;99.90
11615;DHT22;5863;52.832;4.758;2024-03-06T13:37:44;12.90;99.90
11615;DHT22;5863;52.832;4.758;2024-03-06T13:40:11;12.80;99.90
11615;DHT22;5863;52.832;4.758;2024-03-06T13:42:39;12.80;99.90
11615;DHT22;5863;52.832;4.758;2024-03-06T13:45:08;12.80;99.90
11615;DHT22;5863;52.832;4.758;2024-03-06T13:47:37;12.70;99.90
11615;DHT22;5863;52.832;4.758;2024-03-06T13:50:06;12.70;99.90
11615;DHT22;5863;52.832;4.758;2024-03-06T13:52:34;12.70;99.90
11615;DHT22;5863;52.832;4.758;2024-03-06T13:55:01;12.60;99.90
11615;DHT22;5863;52.832;4.758;2024-03-06T13:57:30;12.60;99.90
11615;DHT22;5863;52.832;4.758;2024-03-06T13:59:59;12.50;99.90
11615;DHT22;5863;52.832;4.758;2024-03-06T14:02:27;12.50;99.90
11615;DHT22;5863;52.832;4.758;2024-03-06T14:04:54;12.40;99.90
11615;DHT22;5863;52.832;4.758;2024-03-06T14:07:21;12.40;99.90
11615;DHT22;5863;52.832;4.758;2024-03-06T14:09:49;12.30;99.90
11615;DHT22;5863;52.832;4.758;2024-03-06T14:12:16;12.20;99.90
11615;DHT22;5863;52.832;4.758;2024-03-06T14:14:43;12.00;99.90
11615;DHT22;5863;52.832;4.758;2024-03-06T14:17:10;12.10;99.90
11615;DHT22;5863;52.832;4.758;2024-03-06T14:19:39;12.10;99.90
11615;DHT22;5863;52.832;4.758;2024-03-06T14:22:07;12.00;99.90
11615;DHT22;5863;52.832;4.758;2024-03-06T14:24:34;12.00;99.90
11615;DHT22;5863;52.832;4.758;2024-03-06T14:27:01;12.10;99.90
11615;DHT22;5863;52.832;4.758;2024-03-06T14:29:28;12.10;99.90
11615;DHT22;5863;52.832;4.758;2024-03-06T14:31:55;12.10;99.90
11615;DHT22;5863;52.832;4.758;2024-03-06T14:34:22;12.00;99.90
11615;DHT22;5863;52.832;4.758;2024-03-06T14:36:51;12.00;99.90
11615;DHT22;5863;52.832;4.758;2024-03-06T14:39:18;12.00;99.90
11615;DHT22;5863;52.832;4.758;2024-03-06T14:41:47;12.10;99.90
11615;DHT22;5863;52.832;4.758;2024-03-06T14:44:14;12.30;99.90
11615;DHT22;5863;52.832;4.758;2024-03-06T14:46:41;12.40;99.90
11615;DHT22;5863;52.832;4.758;2024-03-06T14:49:09;12.40;99.90
11615;DHT22;5863;52.832;4.758;2024-03-06T14:51:36;12.40;99.90
11615;DHT22;5863;52.832;4.758;2024-03-06T14:54:04;12.40;99.90
11615;DHT22;5863;52.832;4.758;2024-03-06T14:56:31;12.30;99.90
11615;DHT22;5863;52.832;4.758;2024-03-06T14:58:58;12.20;99.90
11615;DHT22;5863;52.832;4.758;2024-03-06T15:01:25;12.20;99.90
11615;DHT22;5863;52.832;4.758;2024-03-06T15:03:52;12.10;99.90
11615;DHT22;5863;52.832;4.758;2024-03-06T15:06:19;12.00;99.90
11615;DHT22;5863;52.832;4.758;2024-03-06T15:08:46;12.00;99.90
11615;DHT22;5863;52.832;4.758;2024-03-06T15:11:15;11.90;99.90
11615;DHT22;5863;52.832;4.758;2024-03-06T15:13:42;11.80;99.90
11615;DHT22;5863;52.832;4.758;2024-03-06T15:16:10;11.80;99.90
11615;DHT22;5863;52.832;4.758;2024-03-06T15:18:38;11.80;99.90
11615;DHT22;5863;52.832;4.758;2024-03-06T15:21:06;11.70;99.90
11615;DHT22;5863;52.832;4.758;2024-03-06T15:23:34;11.70;99.90
11615;DHT22;5863;52.832;4.758;2024-03-06T15:26:01;11.70;99.90
11615;DHT22;5863;52.832;4.758;2024-03-06T15:28:29;11.60;99.90
11615;DHT22;5863;52.832;4.758;2024-03-06T15:30:56;11.60;99.90
11615;DHT22;5863;52.832;4.758;2024-03-06T15:33:23;11.60;99.90
11615;DHT22;5863;52.832;4.758;2024-03-06T15:35:51;11.50;99.90
11615;DHT22;5863;52.832;4.758;2024-03-06T15:38:17;11.40;99.90
11615;DHT22;5863;52.832;4.758;2024-03-06T15:40:45;11.40;99.90
11615;DHT22;5863;52.832;4.758;2024-03-06T15:43:15;11.30;99.90
11615;DHT22;5863;52.832;4.758;2024-03-06T15:45:44;11.30;99.90
11615;DHT22;5863;52.832;4.758;2024-03-06T15:48:11;11.20;99.90
11615;DHT22;5863;52.832;4.758;2024-03-06T15:50:39;11.20;99.90
11615;DHT22;5863;52.832;4.758;2024-03-06T15:53:06;11.10;99.90
11615;DHT22;5863;52.832;4.758;2024-03-06T15:55:33;11.10;99.90
11615;DHT22;5863;52.832;4.758;2024-03-06T15:58:00;11.00;99.90